Time;durP1;ratioP1;P1;durP2;ratioP2;P2;SDS_P1;SDS_P2;PMS_P1;PMS_P2;Temp;Humidity;BMP_temperature;BMP_pressure;BME280_temperature;BME280_humidity;BME280_pressure;Samples;Min_cycle;Max_cycle;Signal;HPM_P1;HPM_P2
2022/01/13 00:01:23;;;;;;;20.47;8.13;;;;;;;-145.69;100.00;75431.91;5074303;28;20203;-79
2022/01/13 00:03:49;;;;;;;22.93;8.67;;;;;;;-145.69;100.00;75435.91;5073690;28;20260;-79
2022/01/13 00:06:16;;;;;;;20.77;8.20;;;;;;;-145.69;100.00;75459.78;5073913;28;20653;-80
2022/01/13 00:08:42;;;;;;;19.10;7.70;;;;;;;-145.69;100.00;75455.81;5072959;28;20776;-80
2022/01/13 00:11:10;;;;;;;28.80;12.48;;;;;;;-145.69;100.00;75463.78;5072995;28;20449;-79
2022/01/13 00:13:47;;;;;;;24.77;9.43;;;;;;;-145.69;100.00;75467.75;5073683;28;20206;-79
2022/01/13 00:16:27;;;;;;;19.97;8.27;;;;;;;-145.69;100.00;75459.78;5073937;28;20269;-80
2022/01/13 00:19:05;;;;;;;23.80;8.43;;;;;;;-145.69;100.00;75453.81;5073627;28;20229;-79
2022/01/13 00:21:37;;;;;;;29.37;9.10;;;;;;;-145.69;100.00;75463.78;5073465;28;20202;-79
2022/01/13 00:24:05;;;;;;;23.03;9.07;;;;;;;-145.69;100.00;75481.69;5073371;28;20680;-78
2022/01/13 00:26:36;;;;;;;27.13;8.90;;;;;;;-145.69;100.00;75493.66;5073600;28;20229;-79
2022/01/13 00:29:07;;;;;;;22.17;9.63;;;;;;;-145.69;100.00;75465.78;5073249;28;20549;-79
2022/01/13 00:31:36;;;;;;;26.77;10.57;;;;;;;-145.69;100.00;75487.69;5073226;28;20203;-79
2022/01/13 00:34:06;;;;;;;26.27;9.57;;;;;;;-145.69;100.00;75503.63;5072923;28;20210;-79
2022/01/13 00:36:35;;;;;;;28.03;10.07;;;;;;;-145.69;100.00;75485.69;5073253;28;20226;-79
2022/01/13 00:39:02;;;;;;;27.30;9.17;;;;;;;-145.69;100.00;75487.69;5073150;28;20206;-79
2022/01/13 00:41:29;;;;;;;29.27;10.17;;;;;;;-145.69;100.00;75451.81;5056141;28;20294;-78
2022/01/13 00:43:57;;;;;;;24.80;9.80;;;;;;;-145.69;100.00;75459.78;5053400;28;20613;-78
2022/01/13 00:46:27;;;;;;;25.77;9.90;;;;;;;-145.69;100.00;75487.69;5053322;28;20230;-79
2022/01/13 00:48:56;;;;;;;28.70;9.27;;;;;;;-145.69;100.00;75509.59;5066525;28;20286;-79
2022/01/13 00:51:25;;;;;;;23.20;9.03;;;;;;;-145.69;100.00;75499.63;5073040;28;20211;-79
2022/01/13 00:53:54;;;;;;;20.90;9.13;;;;;;;-145.69;100.00;75481.69;5073175;28;20287;-79
2022/01/13 00:56:21;;;;;;;21.87;8.37;;;;;;;-145.69;100.00;75465.78;5072662;28;20697;-79
2022/01/13 00:58:47;;;;;;;25.73;9.07;;;;;;;-145.69;100.00;75467.75;5072842;28;20713;-79
2022/01/13 01:01:18;;;;;;;28.63;9.17;;;;;;;-145.69;100.00;75441.88;5073124;28;20206;-79
2022/01/13 01:03:46;;;;;;;35.67;8.47;;;;;;;-145.69;100.00;75453.81;5073195;28;20546;-79
2022/01/13 01:06:14;;;;;;;20.03;7.67;;;;;;;-145.69;100.00;75483.69;5072839;28;20550;-79
2022/01/13 01:08:47;;;;;;;18.63;7.10;;;;;;;-145.69;100.00;75515.56;5072963;28;20198;-79
2022/01/13 01:11:13;;;;;;;16.57;6.10;;;;;;;-145.69;100.00;75523.53;5073093;28;20202;-79
2022/01/13 01:13:48;;;;;;;17.50;8.03;;;;;;;-145.69;100.00;75485.69;5072752;28;20198;-80
2022/01/13 01:16:24;;;;;;;18.07;7.27;;;;;;;-145.69;100.00;75507.59;5071720;28;20567;-79
2022/01/13 01:19:00;;;;;;;27.77;7.57;;;;;;;-145.69;100.00;75527.53;5072853;28;20234;-80
2022/01/13 01:21:49;;;;;;;14.87;5.70;;;;;;;-145.69;100.00;75511.59;5072826;28;20722;-80
2022/01/13 01:27:04;;;;;;;17.10;6.43;;;;;;;-145.69;100.00;75521.53;5072672;28;20203;-79
2022/01/13 01:29:37;;;;;;;17.87;7.37;;;;;;;-145.69;100.00;75493.66;5072770;28;20206;-79
2022/01/13 01:32:11;;;;;;;13.23;5.97;;;;;;;-145.69;100.00;75515.56;5072916;28;20198;-79
2022/01/13 01:37:36;;;;;;;18.30;6.10;;;;;;;-145.69;100.00;75509.59;5152157;27;20543;-80
2022/01/13 01:40:04;;;;;;;15.53;5.80;;;;;;;-145.69;100.00;75487.69;5151716;27;20283;-79
2022/01/13 01:42:31;;;;;;;14.73;6.07;;;;;;;-145.69;100.00;75481.69;5151874;27;20681;-80
2022/01/13 01:44:59;;;;;;;14.87;6.23;;;;;;;-145.69;100.00;75505.59;5151812;27;20199;-80
2022/01/13 01:47:27;;;;;;;14.43;5.37;;;;;;;-145.69;100.00;75523.53;5151455;27;20203;-80
2022/01/13 01:49:58;;;;;;;14.17;5.30;;;;;;;-145.69;100.00;75515.56;5151611;27;20260;-79
2022/01/13 01:52:26;;;;;;;9.17;4.47;;;;;;;-145.69;100.00;75505.59;5151583;27;20242;-80
2022/01/13 01:54:54;;;;;;;15.37;5.27;;;;;;;-145.69;100.00;75511.59;5151582;27;20200;-80
2022/01/13 01:57:25;;;;;;;16.00;4.80;;;;;;;-145.69;100.00;75527.53;5151258;27;20227;-80
2022/01/13 01:59:53;;;;;;;11.43;4.13;;;;;;;-145.69;100.00;75527.53;5151329;27;20202;-80
2022/01/13 02:02:21;;;;;;;11.93;4.77;;;;;;;-145.69;100.00;75507.59;5150660;27;20200;-80
2022/01/13 02:04:47;;;;;;;11.73;4.77;;;;;;;-145.69;100.00;75519.56;5151509;27;20231;-80
2022/01/13 02:07:14;;;;;;;10.70;4.43;;;;;;;-145.69;100.00;75533.50;5151416;27;20241;-79
2022/01/13 02:09:43;;;;;;;10.00;4.77;;;;;;;-145.69;100.00;75535.50;5150905;27;20204;-80
2022/01/13 02:12:19;;;;;;;11.70;4.43;;;;;;;-145.69;100.00;75539.47;5151603;27;20196;-80
2022/01/13 02:14:57;;;;;;;8.93;3.93;;;;;;;-145.69;100.00;75545.44;5151938;27;20203;-79
2022/01/13 02:17:26;;;;;;;12.83;4.10;;;;;;;-145.69;100.00;75531.50;5151403;27;20219;-79
2022/01/13 02:19:54;;;;;;;12.13;4.63;;;;;;;-145.69;100.00;75509.59;5151780;27;20207;-79
2022/01/13 02:22:22;;;;;;;15.03;4.67;;;;;;;-145.69;100.00;75519.56;5151256;27;20667;-79
2022/01/13 02:24:51;;;;;;;8.30;3.80;;;;;;;-145.69;100.00;75535.50;5151532;27;20204;-79
2022/01/13 02:27:19;;;;;;;6.60;3.13;;;;;;;-145.69;100.00;75551.41;5151334;27;20208;-80
2022/01/13 02:29:45;;;;;;;9.00;3.83;;;;;;;-145.69;100.00;75545.44;5151262;27;20211;-80
2022/01/13 02:32:13;;;;;;;11.40;4.10;;;;;;;-145.69;100.00;75583.28;5151259;27;20193;-80
2022/01/13 02:34:40;;;;;;;10.07;3.47;;;;;;;-145.69;100.00;75591.25;5151137;27;20200;-81
2022/01/13 02:37:06;;;;;;;9.23;3.47;;;;;;;-145.69;100.00;75609.19;5150561;27;20228;-80
2022/01/13 02:39:34;;;;;;;6.50;2.50;;;;;;;-145.69;100.00;75609.19;5151046;27;20559;-81
2022/01/13 02:42:02;;;;;;;4.27;2.50;;;;;;;-145.69;100.00;75603.22;5151208;27;20196;-80
2022/01/13 02:44:31;;;;;;;4.53;2.07;;;;;;;-145.69;100.00;75605.19;5137479;27;20251;-80
2022/01/13 02:47:20;;;;;;;5.83;2.60;;;;;;;-145.69;100.00;75569.34;5142867;27;20197;-81
2022/01/13 02:49:49;;;;;;;8.03;2.70;;;;;;;-145.69;100.00;75581.31;5137065;27;20272;-80
2022/01/13 02:52:21;;;;;;;7.37;3.00;;;;;;;-145.69;100.00;75583.28;5136790;27;20212;-80
2022/01/13 02:54:57;;;;;;;6.17;2.97;;;;;;;-145.69;100.00;75563.38;5137042;27;20204;-81
2022/01/13 02:57:28;;;;;;;6.20;2.97;;;;;;;-145.69;100.00;75577.31;5136253;27;20228;-80
2022/01/13 03:00:01;;;;;;;5.40;2.80;;;;;;;-145.69;100.00;75565.38;5136597;27;20228;-81
2022/01/13 03:02:34;;;;;;;5.07;2.70;;;;;;;-145.69;100.00;75571.34;5136449;27;20205;-81
2022/01/13 03:05:00;;;;;;;7.87;2.50;;;;;;;-145.69;100.00;75591.25;5136601;27;20193;-80
2022/01/13 03:07:33;;;;;;;8.23;2.40;;;;;;;-145.69;100.00;75593.25;5135619;27;20605;-80
2022/01/13 03:10:04;;;;;;;5.27;2.50;;;;;;;-145.69;100.00;75543.44;5136352;27;20670;-80
2022/01/13 03:12:36;;;;;;;7.07;2.60;;;;;;;-145.69;100.00;75539.47;5136417;27;20208;-80
2022/01/13 03:15:03;;;;;;;6.97;3.00;;;;;;;-145.69;100.00;75561.38;5136630;27;20281;-80
2022/01/13 03:17:35;;;;;;;4.33;1.93;;;;;;;-145.69;100.00;75539.47;5136538;27;20224;-81
2022/01/13 03:20:03;;;;;;;5.63;2.53;;;;;;;-145.69;100.00;75517.56;5136406;27;20253;-80
2022/01/13 03:22:32;;;;;;;4.17;1.70;;;;;;;-145.69;100.00;75527.53;5136453;27;20206;-80
2022/01/13 03:25:03;;;;;;;2.80;1.80;;;;;;;-145.69;100.00;75559.38;5136002;27;20551;-80
2022/01/13 03:27:35;;;;;;;5.67;2.27;;;;;;;-145.69;100.00;75577.31;5136061;27;20614;-80
2022/01/13 03:30:06;;;;;;;3.67;1.80;;;;;;;-145.69;100.00;75571.34;5136017;27;20211;-80
2022/01/13 03:32:36;;;;;;;3.73;2.07;;;;;;;-145.69;100.00;75557.41;5136504;27;20250;-80
2022/01/13 03:35:05;;;;;;;8.43;2.07;;;;;;;-145.69;100.00;75581.31;5135894;27;20193;-80
2022/01/13 03:37:34;;;;;;;8.20;2.77;;;;;;;-145.69;100.00;75603.22;5135658;27;20228;-80
2022/01/13 03:40:11;;;;;;;6.63;3.10;;;;;;;-145.69;100.00;75589.28;5136141;27;20228;-80
2022/01/13 03:42:39;;;;;;;5.67;2.73;;;;;;;-145.69;100.00;75597.22;5135157;27;20193;-80
2022/01/13 03:45:08;;;;;;;5.80;2.80;;;;;;;-145.69;100.00;75593.25;5135592;27;20208;-80
2022/01/13 03:47:35;;;;;;;4.33;2.03;;;;;;;-145.69;100.00;75579.31;5135717;27;20197;-80
2022/01/13 03:50:02;;;;;;;6.07;2.70;;;;;;;-145.69;100.00;75551.41;5135422;27;20715;-80
2022/01/13 03:53:02;;;;;;;6.80;2.30;;;;;;;-145.69;100.00;75559.38;5135242;27;20203;-80
2022/01/13 03:56:18;;;;;;;5.57;2.37;;;;;;;-145.69;100.00;75555.41;5135294;27;20554;-80
2022/01/13 03:59:26;;;;;;;7.33;2.20;;;;;;;-145.69;100.00;75547.44;5134673;27;20674;-80
2022/01/13 04:02:03;;;;;;;4.93;2.10;;;;;;;-145.69;100.00;75531.50;5135330;27;20607;-80
2022/01/13 04:04:33;;;;;;;6.47;2.67;;;;;;;-145.69;100.00;75547.44;5135060;27;20235;-80
2022/01/13 04:07:21;;;;;;;5.47;2.10;;;;;;;-145.69;100.00;75539.47;5135065;27;20609;-80
2022/01/13 04:10:34;;;;;;;6.67;1.90;;;;;;;-145.69;100.00;75561.38;5117351;27;20220;-80
2022/01/13 04:13:11;;;;;;;4.93;2.23;;;;;;;-145.69;100.00;75551.41;5135339;27;20192;-79
2022/01/13 04:15:46;;;;;;;4.53;1.83;;;;;;;-145.69;100.00;75539.47;5134994;27;20278;-80
2022/01/13 04:18:14;;;;;;;2.93;1.93;;;;;;;-145.69;100.00;75541.47;5135473;27;20224;-80
2022/01/13 04:20:42;;;;;;;3.63;2.10;;;;;;;-145.69;100.00;75535.50;5135011;27;20200;-80
2022/01/13 04:23:09;;;;;;;4.67;2.00;;;;;;;-145.69;100.00;75551.41;5135146;27;20203;-80
2022/01/13 04:25:44;;;;;;;6.07;2.13;;;;;;;-145.69;100.00;75547.44;5134655;27;20197;-80
2022/01/13 04:28:14;;;;;;;6.23;2.40;;;;;;;-145.69;100.00;75543.44;5135037;27;20192;-80
2022/01/13 04:33:21;;;;;;;5.50;1.97;;;;;;;-145.69;100.00;75523.53;5134586;27;20585;-80
2022/01/13 04:35:50;;;;;;;4.27;2.00;;;;;;;-145.69;100.00;75519.56;5134244;27;20224;-80
2022/01/13 04:38:17;;;;;;;4.63;2.00;;;;;;;-145.69;100.00;75523.53;5134451;27;20231;-80
2022/01/13 04:40:56;;;;;;;5.23;1.70;;;;;;;-145.69;100.00;75519.56;5134783;27;20207;-79
2022/01/13 04:43:26;;;;;;;3.87;1.80;;;;;;;-145.69;100.00;75521.53;5130207;27;20211;-81
2022/01/13 04:45:56;;;;;;;11.03;2.00;;;;;;;-145.69;100.00;75521.53;5133945;27;20598;-81
2022/01/13 04:48:25;;;;;;;7.77;2.43;;;;;;;-145.69;100.00;75539.47;5134489;27;20253;-80
2022/01/13 04:50:57;;;;;;;3.87;1.83;;;;;;;-145.69;100.00;75547.44;5134539;27;20200;-80
2022/01/13 04:53:28;;;;;;;6.73;2.57;;;;;;;-145.69;100.00;75549.44;5134073;27;20690;-80
2022/01/13 04:55:58;;;;;;;4.67;2.17;;;;;;;-145.69;100.00;75559.38;5134231;27;20196;-80
2022/01/13 04:58:25;;;;;;;5.43;2.60;;;;;;;-145.69;100.00;75561.38;5134344;27;20220;-80
2022/01/13 05:00:54;;;;;;;5.00;2.67;;;;;;;-145.69;100.00;75561.38;5134205;27;20196;-77
2022/01/13 05:03:20;;;;;;;12.50;3.33;;;;;;;-145.69;100.00;75559.38;5133560;27;20203;-79
2022/01/13 05:05:49;;;;;;;6.70;3.00;;;;;;;-145.69;100.00;75571.34;5133788;27;20662;-80
2022/01/13 05:08:17;;;;;;;6.47;2.97;;;;;;;-145.69;100.00;75581.31;5134011;27;20197;-80
2022/01/13 05:10:45;;;;;;;5.23;2.23;;;;;;;-145.69;100.00;75559.38;5133640;27;20212;-80
2022/01/13 05:13:12;;;;;;;5.97;3.10;;;;;;;-145.69;100.00;75519.56;5134070;27;20205;-79
2022/01/13 05:15:41;;;;;;;11.67;2.53;;;;;;;-145.69;100.00;75499.63;5133835;27;20192;-80
2022/01/13 05:18:18;;;;;;;6.83;2.47;;;;;;;-145.69;100.00;75519.56;5134195;27;20258;-80
2022/01/13 05:20:49;;;;;;;4.33;1.90;;;;;;;-145.69;100.00;75531.50;5133778;27;20196;-80
2022/01/13 05:23:19;;;;;;;3.57;2.03;;;;;;;-145.69;100.00;75527.53;5134069;27;20204;-79
2022/01/13 05:25:50;;;;;;;5.73;2.30;;;;;;;-145.69;100.00;75535.50;5133775;27;20283;-80
2022/01/13 05:28:16;;;;;;;11.63;2.33;;;;;;;-145.69;100.00;75561.38;5133851;27;20412;-79
2022/01/13 05:30:43;;;;;;;7.43;2.77;;;;;;;-145.69;100.00;75573.34;5133323;27;20678;-80
2022/01/13 05:33:10;;;;;;;4.90;2.50;;;;;;;-145.69;100.00;75567.34;5133946;27;20205;-79
2022/01/13 05:35:37;;;;;;;7.73;2.80;;;;;;;-145.69;100.00;75543.44;5133446;28;20255;-79
2022/01/13 05:38:08;;;;;;;4.73;2.27;;;;;;;-145.69;100.00;75551.41;5133456;27;20694;-79
2022/01/13 05:40:40;;;;;;;3.87;2.10;;;;;;;-145.69;100.00;75547.44;5133868;27;20197;-79
2022/01/13 05:43:07;;;;;;;4.43;1.90;;;;;;;-145.69;100.00;75563.38;5133964;27;20193;-80
2022/01/13 05:45:34;;;;;;;6.47;2.20;;;;;;;-145.69;100.00;75579.31;5133612;27;20238;-80
2022/01/13 05:48:02;;;;;;;4.50;2.13;;;;;;;-145.69;100.00;75553.41;5133534;28;20200;-80
2022/01/13 05:50:30;;;;;;;4.90;1.80;;;;;;;-145.69;100.00;75551.41;5133699;28;20594;-79
2022/01/13 05:52:56;;;;;;;3.43;1.97;;;;;;;-145.69;100.00;75543.44;5133473;28;20207;-80
2022/01/13 05:55:23;;;;;;;4.20;1.87;;;;;;;-145.69;100.00;75545.44;5132896;28;20203;-79
2022/01/13 05:57:51;;;;;;;5.30;2.53;;;;;;;-145.69;100.00;75551.41;5133565;27;20220;-79
2022/01/13 06:00:20;;;;;;;5.50;2.37;;;;;;;-145.69;100.00;75559.38;5133663;27;20203;-79
2022/01/13 06:02:47;;;;;;;4.03;1.90;;;;;;;-145.69;100.00;75541.47;5133748;27;20207;-80
2022/01/13 06:05:15;;;;;;;3.07;1.90;;;;;;;-145.69;100.00;75531.50;5133213;27;20597;-80
2022/01/13 06:07:41;;;;;;;10.83;2.93;;;;;;;-145.69;100.00;75551.41;5133179;28;20211;-79
2022/01/13 06:10:13;;;;;;;7.97;2.27;;;;;;;-145.69;100.00;75557.41;5133525;28;20205;-80
2022/01/13 06:12:40;;;;;;;4.47;1.87;;;;;;;-145.69;100.00;75545.44;5133486;28;20203;-80
2022/01/13 06:15:10;;;;;;;14.33;3.00;;;;;;;-145.69;100.00;75525.53;5132779;27;20655;-80
2022/01/13 06:17:38;;;;;;;6.83;2.70;;;;;;;-145.69;100.00;75539.47;5133395;27;20232;-80
2022/01/13 06:20:06;;;;;;;7.00;3.00;;;;;;;-145.69;100.00;75571.34;5133471;27;20200;-79
2022/01/13 06:22:33;;;;;;;11.60;3.47;;;;;;;-145.69;100.00;75571.34;5134031;27;20273;-78
2022/01/13 06:24:59;;;;;;;9.70;3.37;;;;;;;-145.69;100.00;75583.28;5137158;27;20185;-80
2022/01/13 06:27:26;;;;;;;7.80;3.10;;;;;;;-145.69;100.00;75539.47;5137396;27;20199;-80
2022/01/13 06:29:53;;;;;;;14.20;2.63;;;;;;;-145.69;100.00;75531.50;5137056;27;20201;-80
2022/01/13 06:32:22;;;;;;;4.83;2.57;;;;;;;-145.69;100.00;75545.44;5137111;27;20656;-79
2022/01/13 06:34:49;;;;;;;5.63;2.53;;;;;;;-145.69;100.00;75537.47;5135679;27;20193;-79
2022/01/13 06:37:15;;;;;;;6.20;2.47;;;;;;;-145.69;100.00;75551.41;5136725;27;20240;-80
2022/01/13 06:39:42;;;;;;;3.57;2.10;;;;;;;-145.69;100.00;75561.38;5137333;27;20204;-80
2022/01/13 06:42:09;;;;;;;3.33;1.97;;;;;;;-145.69;100.00;75541.47;5136983;27;20204;-80
2022/01/13 06:44:35;;;;;;;5.13;2.33;;;;;;;-145.69;100.00;75535.50;5136780;27;20265;-80
2022/01/13 06:47:03;;;;;;;11.77;2.57;;;;;;;-145.69;100.00;75539.47;5136618;27;20204;-80
2022/01/13 06:49:31;;;;;;;10.63;2.40;;;;;;;-145.69;100.00;75547.44;5136680;27;20201;-79
2022/01/13 06:51:58;;;;;;;5.37;2.50;;;;;;;-145.69;100.00;75545.44;5137016;27;20219;-79
2022/01/13 06:54:24;;;;;;;7.33;2.80;;;;;;;-145.69;100.00;75543.44;5136561;27;20204;-80
2022/01/13 06:56:51;;;;;;;6.63;2.60;;;;;;;-145.69;100.00;75545.44;5136573;27;20200;-80
2022/01/13 06:59:18;;;;;;;5.63;2.50;;;;;;;-145.69;100.00;75545.44;5136546;27;20208;-80
2022/01/13 07:01:45;;;;;;;6.33;2.47;;;;;;;-145.69;100.00;75543.44;5136248;27;20197;-79
2022/01/13 07:04:13;;;;;;;8.43;2.60;;;;;;;-145.69;100.00;75527.53;5136995;27;20200;-80
2022/01/13 07:06:42;;;;;;;9.13;2.47;;;;;;;-145.69;100.00;75527.53;5136241;27;20200;-79
2022/01/13 07:09:11;;;;;;;3.97;2.20;;;;;;;-145.69;100.00;75549.44;5136444;27;20212;-80
2022/01/13 07:11:38;;;;;;;6.63;2.60;;;;;;;-145.69;100.00;75559.38;5136547;27;20207;-80
2022/01/13 07:14:05;;;;;;;4.67;2.40;;;;;;;-145.69;100.00;75567.34;5136499;27;20201;-77
2022/01/13 07:16:31;;;;;;;3.93;1.70;;;;;;;-145.69;100.00;75553.41;5136041;27;20197;-77
2022/01/13 07:18:58;;;;;;;5.27;2.37;;;;;;;-145.69;100.00;75557.41;5136345;27;20236;-79
2022/01/13 07:21:27;;;;;;;5.73;2.50;;;;;;;-145.69;100.00;75543.44;5136340;27;20201;-79
2022/01/13 07:23:55;;;;;;;3.50;1.93;;;;;;;-145.69;100.00;75555.41;5136305;27;20197;-77
2022/01/13 07:26:22;;;;;;;3.93;1.80;;;;;;;-145.69;100.00;75555.41;5135674;27;20200;-77
2022/01/13 07:28:48;;;;;;;6.77;2.17;;;;;;;-145.69;100.00;75537.47;5136068;27;20205;-79
2022/01/13 07:31:15;;;;;;;3.97;1.80;;;;;;;-145.69;100.00;75521.53;5135811;27;20197;-77
2022/01/13 07:33:42;;;;;;;8.45;3.40;;;;;;;-145.69;100.00;75511.59;5134882;27;20425;-79
2022/01/13 07:36:09;;;;;;;7.27;2.50;;;;;;;-145.69;100.00;75511.59;5135586;27;20221;-77
2022/01/13 07:38:35;;;;;;;9.50;2.60;;;;;;;-145.69;100.00;75477.72;5135940;27;20244;-77
2022/01/13 07:41:04;;;;;;;2.83;2.00;;;;;;;-145.69;100.00;75499.63;5135959;27;20226;-77
2022/01/13 07:43:31;;;;;;;6.73;2.30;;;;;;;-145.69;100.00;75507.59;5135653;27;20204;-77
2022/01/13 07:45:58;;;;;;;5.00;2.10;;;;;;;-145.69;100.00;75497.63;5135497;27;20245;-77
2022/01/13 07:48:26;;;;;;;7.10;2.50;;;;;;;-145.69;100.00;75487.69;5135844;27;20201;-77
2022/01/13 07:50:53;;;;;;;5.73;2.37;;;;;;;-145.69;100.00;75493.66;5135820;27;20201;-77
2022/01/13 07:53:20;;;;;;;9.90;2.53;;;;;;;-145.69;100.00;75481.69;5135726;27;20196;-77
2022/01/13 07:55:47;;;;;;;4.90;2.73;;;;;;;-145.69;100.00;75469.75;5135171;27;20261;-77
2022/01/13 07:58:15;;;;;;;9.00;2.70;;;;;;;-145.69;100.00;75459.78;5135265;27;20234;-77
2022/01/13 08:00:42;;;;;;;9.87;3.77;;;;;;;-145.69;100.00;75451.81;5135200;27;20651;-77
2022/01/13 08:03:09;;;;;;;7.17;2.97;;;;;;;-145.69;100.00;75437.88;5135395;27;20196;-77
2022/01/13 08:05:35;;;;;;;7.67;3.03;;;;;;;-145.69;100.00;75439.88;5134865;27;20226;-77
2022/01/13 08:08:02;;;;;;;7.17;2.93;;;;;;;-145.69;100.00;75435.91;5135390;27;20781;-77
2022/01/13 08:10:29;;;;;;;7.27;2.57;;;;;;;-145.69;100.00;75427.94;5135209;27;20671;-77
2022/01/13 08:12:55;;;;;;;5.23;2.60;;;;;;;-145.69;100.00;75427.94;5135181;27;20197;-77
2022/01/13 08:15:23;;;;;;;7.33;2.90;;;;;;;-145.69;100.00;75419.97;5135140;27;20193;-77
2022/01/13 08:20:36;;;;;;;6.50;3.13;;;;;;;-145.69;100.00;75417.97;5135118;27;20330;-77
2022/01/13 08:23:03;;;;;;;6.80;2.90;;;;;;;-145.69;100.00;75402.03;5134988;27;20200;-77
2022/01/13 08:25:30;;;;;;;4.27;2.60;;;;;;;-145.69;100.00;75412.00;5134525;27;20651;-77
2022/01/13 08:27:57;;;;;;;5.57;2.30;;;;;;;-145.69;100.00;75423.94;5122818;27;20216;-77
2022/01/13 08:30:25;;;;;;;5.43;2.80;;;;;;;-145.69;100.00;75398.03;5114794;28;20537;-77
2022/01/13 08:32:52;;;;;;;5.10;2.73;;;;;;;-145.69;100.00;75384.09;5114298;28;20672;-77
2022/01/13 08:35:19;;;;;;;9.03;3.37;;;;;;;-145.69;100.00;75356.22;5120736;27;20213;-77
2022/01/13 08:37:45;;;;;;;10.33;3.20;;;;;;;-145.69;100.00;75340.28;5134404;27;20230;-78
2022/01/13 08:40:14;;;;;;;6.23;2.60;;;;;;;-145.69;100.00;75336.28;5134766;27;20605;-77
2022/01/13 08:42:42;;;;;;;9.90;3.20;;;;;;;-145.69;100.00;75326.34;5134692;27;20647;-78
2022/01/13 08:45:12;;;;;;;5.70;3.10;;;;;;;-145.69;100.00;75316.38;5133929;27;20275;-79
2022/01/13 08:47:40;;;;;;;7.53;2.80;;;;;;;-145.69;100.00;75294.47;5134058;27;20200;-77
2022/01/13 08:50:07;;;;;;;5.40;2.70;;;;;;;-145.69;100.00;75280.53;5134424;27;20281;-78
2022/01/13 08:52:37;;;;;;;6.93;3.30;;;;;;;-145.69;100.00;75286.50;5134621;27;20193;-78
2022/01/13 08:55:05;;;;;;;6.43;2.97;;;;;;;-145.69;100.00;75282.53;5134253;27;20250;-78
2022/01/13 08:57:32;;;;;;;10.10;3.30;;;;;;;-145.69;100.00;75264.59;5133042;27;20193;-78
2022/01/13 08:59:58;;;;;;;11.57;3.93;;;;;;;-145.69;100.00;75244.69;5134170;27;20204;-78
2022/01/13 09:02:25;;;;;;;8.80;4.33;;;;;;;-145.69;100.00;75220.78;5134160;27;20193;-77
2022/01/13 09:04:53;;;;;;;14.93;4.90;;;;;;;-145.69;100.00;75204.84;5133791;27;20196;-76
2022/01/13 09:07:19;;;;;;;9.00;3.77;;;;;;;-145.69;100.00;75192.88;5134337;27;20192;-76
2022/01/13 09:09:46;;;;;;;10.20;4.10;;;;;;;-145.69;100.00;75186.91;5133923;27;20201;-77
2022/01/13 09:12:12;;;;;;;8.87;4.03;;;;;;;-145.69;100.00;75163.00;5134126;27;20196;-77
2022/01/13 09:14:41;;;;;;;11.70;4.50;;;;;;;-145.69;100.00;75155.03;5134256;27;20204;-77
2022/01/13 09:17:12;;;;;;;14.90;6.20;;;;;;;-145.69;100.00;75141.09;5133296;27;20433;-76
2022/01/13 09:19:41;;;;;;;19.20;7.53;;;;;;;-145.69;100.00;75121.19;5134144;27;20220;-77
2022/01/13 09:22:08;;;;;;;16.73;5.00;;;;;;;-145.69;100.00;75125.16;5134127;27;20236;-78
2022/01/13 09:24:35;;;;;;;13.73;4.30;;;;;;;-145.69;100.00;75111.22;5133705;27;20559;-77
2022/01/13 09:27:01;;;;;;;6.83;3.43;;;;;;;-145.69;100.00;75085.34;5133683;27;20192;-77
2022/01/13 09:29:29;;;;;;;6.27;3.53;;;;;;;-145.69;100.00;75073.38;5133817;27;20204;-77
2022/01/13 09:31:55;;;;;;;9.07;3.60;;;;;;;-145.69;100.00;75057.44;5133986;27;20295;-78
2022/01/13 09:34:21;;;;;;;8.43;3.50;;;;;;;-145.69;100.00;75069.41;5133634;27;20249;-76
2022/01/13 09:36:48;;;;;;;9.60;3.63;;;;;;;-145.69;100.00;75081.34;5132941;28;20695;-77
2022/01/13 09:39:16;;;;;;;8.10;3.90;;;;;;;-145.69;100.00;75065.41;5133951;28;20640;-77
2022/01/13 09:41:44;;;;;;;13.37;5.27;;;;;;;-145.69;100.00;75049.50;5133512;28;20679;-77
2022/01/13 09:44:13;;;;;;;10.80;5.87;;;;;;;-145.69;100.00;75043.50;5133772;28;20249;-76
2022/01/13 09:46:42;;;;;;;13.20;5.50;;;;;;;-145.69;100.00;75025.59;5133627;27;20295;-77
2022/01/13 09:49:09;;;;;;;18.13;5.50;;;;;;;-145.69;100.00;75005.66;5133835;27;20205;-77
2022/01/13 09:51:38;;;;;;;6.97;3.90;;;;;;;-145.69;100.00;75005.66;5133486;27;20540;-77
2022/01/13 09:54:05;;;;;;;10.93;4.83;;;;;;;-145.69;100.00;74987.75;5133795;27;20746;-77
2022/01/13 09:56:34;;;;;;;8.43;3.97;;;;;;;-145.69;100.00;74965.84;5133418;27;20189;-77
2022/01/13 09:59:04;;;;;;;8.27;4.07;;;;;;;-145.69;100.00;74959.88;5136892;27;20224;-77
2022/01/13 10:01:30;;;;;;;10.00;4.03;;;;;;;-145.69;100.00;74945.91;5138028;27;20196;-77
2022/01/13 10:03:57;;;;;;;11.77;4.47;;;;;;;-145.69;100.00;74935.97;5137808;27;20185;-77
2022/01/13 10:06:27;;;;;;;11.13;5.33;;;;;;;-145.69;100.00;74918.03;5137822;27;20197;-76
2022/01/13 10:08:56;;;;;;;13.23;4.93;;;;;;;-145.69;100.00;74902.09;5137700;27;20233;-78
2022/01/13 10:11:54;;;;;;;9.90;4.73;;;;;;;-145.69;100.00;74884.19;5137596;27;20571;-78
2022/01/13 10:17:16;;;;;;;13.23;5.50;;;;;;;-145.69;100.00;74848.34;5137701;27;20234;-78
2022/01/13 10:19:45;;;;;;;18.10;5.57;;;;;;;-145.69;100.00;74822.44;5137851;27;20301;-78
2022/01/13 10:22:13;;;;;;;16.47;6.03;;;;;;;-145.69;100.00;74812.47;5134490;27;20647;-78
2022/01/13 10:24:42;;;;;;;14.83;6.40;;;;;;;-145.69;100.00;74800.53;5136206;27;20203;-78
2022/01/13 10:27:13;;;;;;;13.40;5.80;;;;;;;-145.69;100.00;74802.53;5136169;27;20209;-78
2022/01/13 10:29:42;;;;;;;13.33;4.80;;;;;;;-145.69;100.00;74788.59;5135583;27;20201;-78
2022/01/13 10:32:10;;;;;;;13.30;5.33;;;;;;;-145.69;100.00;74786.59;5135613;27;20630;-78
2022/01/13 10:34:51;;;;;;;10.80;5.07;;;;;;;-145.69;100.00;74774.66;5135033;27;20196;-78
2022/01/13 10:37:19;;;;;;;13.27;4.93;;;;;;;-145.69;100.00;74754.72;5135784;27;20242;-78
2022/01/13 10:39:56;;;;;;;12.40;4.63;;;;;;;-145.69;100.00;74744.78;5135748;27;20232;-78
2022/01/13 10:43:06;;;;;;;9.07;3.33;;;;;;;-145.69;100.00;74712.91;5137215;27;20284;-78
2022/01/13 10:45:35;;;;;;;8.77;3.73;;;;;;;-145.69;100.00;74694.97;5116971;28;20237;-78
2022/01/13 10:48:04;;;;;;;8.80;3.93;;;;;;;-145.69;100.00;74685.03;5116606;28;20200;-79
2022/01/13 10:50:35;;;;;;;9.27;4.70;;;;;;;-145.69;100.00;74667.09;5116577;28;20198;-79
2022/01/13 10:53:05;;;;;;;6.53;3.20;;;;;;;-145.69;100.00;74661.13;5120818;27;20189;-79
2022/01/13 10:55:37;;;;;;;20.47;6.40;;;;;;;-145.69;100.00;74661.13;5137043;27;20228;-79
2022/01/13 10:58:05;;;;;;;19.40;6.87;;;;;;;-145.69;100.00;74653.16;5136767;27;20589;-80
2022/01/13 11:00:33;;;;;;;12.70;5.33;;;;;;;-145.69;100.00;74639.22;5136999;27;20197;-80
2022/01/13 11:03:04;;;;;;;9.73;4.77;;;;;;;-145.69;100.00;74631.25;5136690;27;20200;-80
2022/01/13 11:05:33;;;;;;;12.77;5.23;;;;;;;-145.69;100.00;74613.34;5136981;27;20287;-80
2022/01/13 11:08:06;;;;;;;9.10;4.90;;;;;;;-145.69;100.00;74609.34;5137015;27;20204;-81
2022/01/13 11:10:34;;;;;;;11.33;4.83;;;;;;;-145.69;100.00;74611.34;5136916;27;20296;-82
2022/01/13 11:13:03;;;;;;;10.73;5.20;;;;;;;-145.69;100.00;74591.44;5136503;27;20189;-81
2022/01/13 11:15:34;;;;;;;15.77;5.63;;;;;;;-145.69;100.00;74579.47;5136651;27;20193;-81
2022/01/13 11:18:01;;;;;;;10.87;5.13;;;;;;;-145.69;100.00;74581.47;5136422;27;20200;-81
2022/01/13 11:20:30;;;;;;;16.47;7.37;;;;;;;-145.69;100.00;74563.53;5136271;27;20225;-82
2022/01/13 11:22:58;;;;;;;22.57;8.57;;;;;;;-145.69;100.00;74551.59;5136289;27;20216;-82
2022/01/13 11:25:27;;;;;;;21.03;8.40;;;;;;;-145.69;100.00;74535.66;5136232;27;20726;-82
2022/01/13 11:27:57;;;;;;;23.17;8.53;;;;;;;-145.69;100.00;74527.69;5136177;27;20196;-82
2022/01/13 11:30:28;;;;;;;23.53;9.17;;;;;;;-145.69;100.00;74507.78;5136221;27;20205;-82
2022/01/13 11:32:59;;;;;;;17.93;8.13;;;;;;;-145.69;100.00;74489.88;5135960;27;20293;-83